Amy C. Mc Allister — WCZ9520 — position and weather

sailwx.info

Track history (hours):
 
Tides and Currents Weather Stations Pressure Air Temp Water Temp Dewpoint Dewpoint Depression Visibility Wind Speed Wind Dir Waves Ship Positions

Amy C. Mc Allister

Owner: MC ALLISTER TOWING & TRANSPORTATION INC, NEW YORK, NY. More information available from US FCC via Universal Licensing System and Coast Guard Vessel Documentation Center.

Last reported at 2018-Feb-20 17:00 UTC. Time now 2018-Feb-20 17:28 UTC.
Position N 36°55' W 076°20'.

Length 27 m; draft 4.9 m.

Type: Towing. MMSI: 366995040.

Date/timePositionNaut miles runAvg speedWind from/ knotsBaromVisibWave heightAir tempDewpointWater temp
2018-Feb-20 17:00N 36°55' W 076°20'0 0.0
2018-Feb-20 16:30N 36°55' W 076°20'0 0.0
2018-Feb-20 15:58N 36°55' W 076°20'0 0.0
2018-Feb-20 15:30N 36°55' W 076°20'0 0.0
2018-Feb-20 15:00N 36°55' W 076°20'0 0.0
2018-Feb-20 14:29N 36°55' W 076°20'0 0.0
2018-Feb-20 13:59N 36°55' W 076°20'0 0.0
2018-Feb-20 13:29N 36°55' W 076°20'0 0.0
2018-Feb-20 13:00N 36°55' W 076°20'0 0.0
2018-Feb-20 12:30N 36°55' W 076°20'0 0.0
2018-Feb-20 12:00N 36°55' W 076°20'2 4.1
2018-Feb-20 11:27N 36°52' W 076°21'1 1.4
2018-Feb-20 11:00N 36°53' W 076°20'3 5.9
2018-Feb-20 10:29N 36°56' W 076°20'1 1.7
2018-Feb-20 09:56N 36°55' W 076°20'1 1.4
2018-Feb-20 09:30N 36°55' W 076°20'0 0.0
2018-Feb-20 08:59N 36°55' W 076°20'0 0.0
2018-Feb-20 08:30N 36°55' W 076°20'0 0.0
2018-Feb-20 08:00N 36°55' W 076°20'0 0.0
2018-Feb-20 07:30N 36°55' W 076°20'0 0.0
2018-Feb-20 06:59N 36°55' W 076°20'0 0.0
2018-Feb-20 06:30N 36°55' W 076°20'0 0.0
2018-Feb-20 06:00N 36°55' W 076°20'0 0.0
2018-Feb-20 05:30N 36°55' W 076°20'0 0.0
2018-Feb-20 05:00N 36°55' W 076°20'0 0.0
2018-Feb-20 04:30N 36°55' W 076°20'0 0.0
2018-Feb-20 03:59N 36°55' W 076°20'1 2.4
2018-Feb-20 03:28N 36°56' W 076°20'0 0.4
2018-Feb-20 02:32N 36°56' W 076°20'0 0.1
2018-Feb-20 02:22N 36°56' W 076°20'0 0.0
2018-Feb-20 02:00N 36°56' W 076°20'3 6.4
2018-Feb-20 01:30N 36°53' W 076°20'3 5.8
2018-Feb-20 01:00N 36°51' W 076°18'0 0.6
2018-Feb-20 00:30N 36°50' W 076°17'0 0.0
2018-Feb-19 23:47N 36°50' W 076°17'0 0.0
2018-Feb-19 23:30N 36°50' W 076°17'0 0.0
2018-Feb-19 22:55N 36°50' W 076°17'0 0.0
2018-Feb-19 22:23N 36°50' W 076°17'0 0.0
2018-Feb-19 22:00N 36°50' W 076°17'0 0.0
2018-Feb-19 21:25N 36°50' W 076°17'0 0.0
2018-Feb-19 20:59N 36°50' W 076°17'0 0.0
2018-Feb-19 20:30N 36°50' W 076°17'0 0.0
2018-Feb-19 20:00N 36°50' W 076°17'0 0.0
2018-Feb-19 19:30N 36°50' W 076°17'0 0.0
2018-Feb-19 19:00N 36°50' W 076°17'0 0.0
2018-Feb-19 18:30N 36°50' W 076°17'0 0.0
2018-Feb-19 17:59N 36°50' W 076°17'0 0.0
2018-Feb-19 17:30N 36°50' W 076°17'0 0.0
2018-Feb-19 17:00N 36°50' W 076°17'0 0.0
2018-Feb-19 16:30N 36°50' W 076°17'0 0.0
2018-Feb-19 16:00N 36°50' W 076°17'0 0.0
2018-Feb-19 15:30N 36°50' W 076°17'0 0.0
2018-Feb-19 15:00N 36°50' W 076°17'0 0.0
2018-Feb-19 14:30N 36°50' W 076°17'0 0.0
2018-Feb-19 13:59N 36°50' W 076°17'0 0.0
2018-Feb-19 13:30N 36°50' W 076°17'0 0.0
2018-Feb-19 13:00N 36°50' W 076°17'0 0.0
2018-Feb-19 12:31N 36°50' W 076°17'0 0.0
2018-Feb-19 12:01N 36°50' W 076°17'0 0.0
2018-Feb-19 11:31N 36°50' W 076°17'0 0.0
2018-Feb-19 11:00N 36°50' W 076°17'0 0.0
2018-Feb-19 10:31N 36°50' W 076°17'0 0.0
2018-Feb-19 10:01N 36°50' W 076°17'0 0.0
2018-Feb-19 09:30N 36°50' W 076°17'0 0.0
2018-Feb-19 09:01N 36°50' W 076°17'0 0.0
2018-Feb-19 08:31N 36°50' W 076°17'0 0.0
2018-Feb-19 08:00N 36°50' W 076°17'0 0.0
2018-Feb-19 07:31N 36°50' W 076°17'0 0.0
2018-Feb-19 07:00N 36°50' W 076°17'0 0.0
2018-Feb-19 06:30N 36°50' W 076°17'0 0.0
2018-Feb-19 06:00N 36°50' W 076°17'0 0.0
2018-Feb-19 05:31N 36°50' W 076°17'0 0.0
2018-Feb-19 05:00N 36°50' W 076°17'0 0.0
2018-Feb-19 04:30N 36°50' W 076°17'0 0.0
2018-Feb-19 04:00N 36°50' W 076°17'0 0.0
2018-Feb-19 03:30N 36°50' W 076°17'0 0.0
2018-Feb-19 03:00N 36°50' W 076°17'0 0.0
2018-Feb-19 02:31N 36°50' W 076°17'1 2.1
2018-Feb-19 02:00N 36°51' W 076°18'5 9.0
2018-Feb-19 01:28N 36°56' W 076°20'0 0.5
2018-Feb-19 00:51N 36°56' W 076°20'0 1.0
2018-Feb-19 00:27N 36°56' W 076°20'3 5.4
2018-Feb-18 23:57N 36°59' W 076°20'0 0.8
2018-Feb-18 23:26N 36°59' W 076°20'3 7.4
2018-Feb-18 22:58N 37°00' W 076°16'3 6.9
2018-Feb-18 22:30N 37°00' W 076°12'6 6.3
2018-Feb-18 21:31N 37°06' W 076°10'5 9.7
2018-Feb-18 20:57N 37°12' W 076°10'96 8.9
2018-Feb-18 10:11N 38°47' W 076°27'1 8.6
2018-Feb-18 10:01N 38°48' W 076°26'4 8.6
2018-Feb-18 09:30N 38°53' W 076°25'4 7.6
2018-Feb-18 09:01N 38°56' W 076°24'4 7.7
2018-Feb-18 08:30N 38°60' W 076°23'23 9.1
2018-Feb-18 05:59N 39°21' W 076°11'5 9.9
2018-Feb-18 05:30N 39°23' W 076°05'5 9.2
2018-Feb-18 05:00N 39°26' W 076°01'5 8.7
2018-Feb-18 04:29N 39°29' W 075°57'4 7.8
2018-Feb-18 04:00N 39°31' W 075°53'4 7.1
2018-Feb-18 03:30N 39°32' W 075°48'4 7.1
2018-Feb-18 03:00N 39°33' W 075°44'3 6.8
2018-Feb-18 02:31N 39°33' W 075°39'3 7.0
2018-Feb-18 02:01N 39°34' W 075°35'2 4.8
2018-Feb-18 01:31N 39°36' W 075°34'4 7.4
2018-Feb-18 01:00N 39°39' W 075°33'5 9.0
2018-Feb-18 00:31N 39°44' W 075°30'4 9.0
2018-Feb-18 00:00N 39°47' W 075°27'5 9.4
2018-Feb-17 23:30N 39°50' W 075°22'510.0
2018-Feb-17 23:01N 39°51' W 075°16'5 9.5
2018-Feb-17 22:31N 39°53' W 075°10'2 4.0
2018-Feb-17 22:00N 39°54' W 075°08'0 0.3
2018-Feb-17 21:31N 39°54' W 075°08'0 0.0
2018-Feb-17 21:00N 39°54' W 075°08'0 0.0
2018-Feb-17 20:31N 39°54' W 075°08'0 0.0
2018-Feb-17 20:00N 39°54' W 075°08'0 0.0
2018-Feb-17 19:30N 39°54' W 075°08'0 0.0
2018-Feb-17 19:01N 39°54' W 075°08'0 0.0
2018-Feb-17 18:30N 39°54' W 075°08'0 0.0
2018-Feb-17 18:01N 39°54' W 075°08'0 0.0
2018-Feb-17 17:31N 39°54' W 075°08'0 0.4
2018-Feb-17 17:01N 39°54' W 075°08'2 4.0
2018-Feb-17 16:31N 39°53' W 075°10'4 8.1
2018-Feb-17 16:00N 39°51' W 075°15'4 8.3
2018-Feb-17 15:31N 39°51' W 075°20'5 9.3
2018-Feb-17 15:01N 39°48' W 075°25'4 8.9
2018-Feb-17 14:30N 39°45' W 075°29'4 8.6
2018-Feb-17 14:00N 39°41' W 075°31'4 8.2
2018-Feb-17 13:30N 39°38' W 075°34'4 7.9
2018-Feb-17 13:01N 39°34' W 075°33'4 8.0
2018-Feb-17 12:30N 39°33' W 075°38'4 8.4
2018-Feb-17 12:00N 39°33' W 075°43'36 7.7
2018-Feb-17 07:24N 39°10' W 076°19'3 7.0
2018-Feb-17 07:00N 39°10' W 076°22'4 8.5
2018-Feb-17 06:30N 39°11' W 076°27'4 8.6
2018-Feb-17 06:00N 39°13' W 076°32'2 4.4
2018-Feb-17 05:30N 39°15' W 076°33'0 0.1
2018-Feb-17 05:01N 39°15' W 076°33'0 0.0
2018-Feb-17 04:31N 39°15' W 076°33'0 0.0
2018-Feb-17 04:00N 39°15' W 076°33'0 0.0
2018-Feb-17 03:31N 39°15' W 076°33'0 0.0
2018-Feb-17 03:00N 39°15' W 076°33'0 0.0
2018-Feb-17 02:30N 39°15' W 076°33'0 0.0
2018-Feb-17 02:00N 39°15' W 076°33'0 0.0
2018-Feb-17 01:30N 39°15' W 076°33'0 0.0
2018-Feb-17 01:01N 39°15' W 076°33'0 0.2
2018-Feb-17 00:31N 39°15' W 076°33'0 0.2
2018-Feb-17 00:00N 39°15' W 076°33'0 0.0
2018-Feb-16 23:30N 39°15' W 076°33'0 0.0
2018-Feb-16 23:00N 39°15' W 076°33'0 0.0
2018-Feb-16 22:31N 39°15' W 076°33'0 0.0
2018-Feb-16 22:01N 39°15' W 076°33'0 0.0
2018-Feb-16 21:31N 39°15' W 076°33'0 0.0
2018-Feb-16 21:01N 39°15' W 076°33'0 0.0
2018-Feb-16 20:31N 39°15' W 076°33'0 0.0
2018-Feb-16 20:01N 39°15' W 076°33'0 0.0
2018-Feb-16 19:31N 39°15' W 076°33'0 0.0
2018-Feb-16 19:00N 39°15' W 076°33'0 0.0
2018-Feb-16 18:31N 39°15' W 076°33'0 0.0
2018-Feb-16 18:01N 39°15' W 076°33'0 0.0
2018-Feb-16 17:31N 39°15' W 076°33'0 0.0
2018-Feb-16 17:01N 39°15' W 076°33'0 0.0
2018-Feb-16 16:31N 39°15' W 076°33'0 0.0
2018-Feb-16 16:00N 39°15' W 076°33'0 0.0
2018-Feb-16 15:31N 39°15' W 076°33'0 0.0
2018-Feb-16 15:01N 39°15' W 076°33'0 0.0
2018-Feb-16 14:30N 39°15' W 076°33'0 0.0
2018-Feb-16 14:01N 39°15' W 076°33'0 0.0
2018-Feb-16 13:31N 39°15' W 076°33'0 0.0
2018-Feb-16 13:01N 39°15' W 076°33'0 0.0
2018-Feb-16 12:31N 39°15' W 076°33'0 0.0
2018-Feb-16 12:00N 39°15' W 076°33'0 0.0
2018-Feb-16 11:29N 39°15' W 076°33'0 0.0
2018-Feb-16 11:01N 39°15' W 076°33'0 0.0
2018-Feb-16 10:30N 39°15' W 076°33'0 0.0
2018-Feb-16 10:01N 39°15' W 076°33'0 0.0
2018-Feb-16 09:31N 39°15' W 076°33'0 0.0
2018-Feb-16 09:01N 39°15' W 076°33'0 0.0
2018-Feb-16 08:30N 39°15' W 076°33'0 0.0
2018-Feb-16 08:01N 39°15' W 076°33'0 0.0
2018-Feb-16 07:30N 39°15' W 076°33'0 0.0
2018-Feb-16 07:01N 39°15' W 076°33'0 0.0
2018-Feb-16 06:30N 39°15' W 076°33'0 0.0
2018-Feb-16 06:01N 39°15' W 076°33'0 0.0
2018-Feb-16 05:30N 39°15' W 076°33'0 0.0
2018-Feb-16 05:01N 39°15' W 076°33'0 0.0
2018-Feb-16 04:31N 39°15' W 076°33'0 0.0
2018-Feb-16 04:00N 39°15' W 076°33'0 0.2
2018-Feb-16 03:31N 39°15' W 076°33'0 0.2
2018-Feb-16 03:00N 39°15' W 076°33'0 0.0
2018-Feb-16 02:30N 39°15' W 076°33'0 0.0
2018-Feb-16 02:01N 39°15' W 076°33'0 0.0
2018-Feb-16 01:31N 39°15' W 076°33'0 0.0
2018-Feb-16 01:01N 39°15' W 076°33'0 0.0
2018-Feb-16 00:31N 39°15' W 076°33'0 0.0
2018-Feb-16 00:00N 39°15' W 076°33'1 2.3
2018-Feb-15 23:30N 39°14' W 076°33'4 8.0
2018-Feb-15 23:00N 39°12' W 076°29'13 6.6
2018-Feb-15 21:04N 38°60' W 076°23'8 8.3
2018-Feb-15 20:07N 38°52' W 076°25'1 8.1
2018-Feb-15 20:01N 38°51' W 076°25'100 8.3
2018-Feb-15 07:54N 37°11' W 076°10'4 7.7
2018-Feb-15 07:25N 37°08' W 076°10'3 7.7
2018-Feb-15 06:59N 37°04' W 076°09'4 7.4
2018-Feb-15 06:22N 36°60' W 076°10'410.1
2018-Feb-15 05:56N 37°00' W 076°15'5 9.5
2018-Feb-15 05:26N 36°58' W 076°20'4 9.5
2018-Feb-15 04:59N 36°53' W 076°20'1 1.6
2018-Feb-15 04:25N 36°53' W 076°21'0 0.0
2018-Feb-15 04:00N 36°53' W 076°21'0 0.0
2018-Feb-15 03:28N 36°53' W 076°21'0 0.0
2018-Feb-15 02:55N 36°53' W 076°21'0 0.0
2018-Feb-15 02:27N 36°53' W 076°21'0 0.0
2018-Feb-15 01:58N 36°53' W 076°21'0 0.0
2018-Feb-14 22:55N 36°53' W 076°21'0 0.0
2018-Feb-14 22:22N 36°53' W 076°21'0 0.0
2018-Feb-14 22:00N 36°53' W 076°21'0 0.0
2018-Feb-14 21:26N 36°53' W 076°21'0 0.0
2018-Feb-14 20:17N 36°53' W 076°21'0 0.0
2018-Feb-14 19:58N 36°53' W 076°21'0 0.0
2018-Feb-14 17:50N 36°53' W 076°21'0 0.0
2018-Feb-14 17:22N 36°53' W 076°21'0 0.0
2018-Feb-14 16:59N 36°53' W 076°21'0 0.5
2018-Feb-14 16:26N 36°53' W 076°21'3 6.8
2018-Feb-14 15:59N 36°56' W 076°20'0 0.8
2018-Feb-14 15:30N 36°55' W 076°20'0 0.0
2018-Feb-14 15:00N 36°55' W 076°20'0 0.0
2018-Feb-14 14:27N 36°55' W 076°20'0 0.0
2018-Feb-14 14:00N 36°55' W 076°20'0 0.0
2018-Feb-14 13:30N 36°55' W 076°20'0 0.1
2018-Feb-14 13:00N 36°55' W 076°20'0 0.2
2018-Feb-14 11:09N 36°56' W 076°20'0 0.0
2018-Feb-14 10:39N 36°56' W 076°20'0 0.0
2018-Feb-14 10:28N 36°56' W 076°20'0 0.0
2018-Feb-14 09:58N 36°56' W 076°20'0 0.0
2018-Feb-14 09:25N 36°56' W 076°20'0 0.0
2018-Feb-14 08:59N 36°56' W 076°20'0 0.0
2018-Feb-14 04:09N 36°56' W 076°20'0 0.0
2018-Feb-14 01:33N 36°56' W 076°20'0 3.9
2018-Feb-14 01:29N 36°56' W 076°20'4 7.3
2018-Feb-14 01:00N 36°52' W 076°20'3 5.2
2018-Feb-14 00:30N 36°50' W 076°17'0 0.0
2018-Feb-14 00:00N 36°50' W 076°17'0 0.0
2018-Feb-13 23:29N 36°50' W 076°17'0 0.0
2018-Feb-13 22:52N 36°50' W 076°17'0 0.0
2018-Feb-13 22:28N 36°50' W 076°17'0 0.0
2018-Feb-13 21:59N 36°50' W 076°17'0 0.0
2018-Feb-13 21:30N 36°50' W 076°17'0 0.0
2018-Feb-13 20:55N 36°50' W 076°17'0 0.0
2018-Feb-13 20:30N 36°50' W 076°17'0 0.0
2018-Feb-13 19:58N 36°50' W 076°17'0 0.0
2018-Feb-13 19:22N 36°50' W 076°17'0 0.0
2018-Feb-13 18:56N 36°50' W 076°17'0 0.0
2018-Feb-13 18:06N 36°50' W 076°17'0 0.0
2018-Feb-13 17:57N 36°50' W 076°17'0 0.0
2018-Feb-13 17:27N 36°50' W 076°17'0 0.0
2018-Feb-13 17:00N 36°50' W 076°17'0 0.0
2018-Feb-13 16:30N 36°50' W 076°17'0 0.0
2018-Feb-13 16:00N 36°50' W 076°17'2 4.9
2018-Feb-13 15:31N 36°48' W 076°18'0 0.1
2018-Feb-13 15:00N 36°48' W 076°17'0 0.0
2018-Feb-13 14:30N 36°48' W 076°18'0 0.0
2018-Feb-13 14:00N 36°48' W 076°18'0 0.0
2018-Feb-13 13:30N 36°48' W 076°18'0 0.0
2018-Feb-13 13:00N 36°48' W 076°18'2 3.9
2018-Feb-13 12:30N 36°50' W 076°18'1 1.1
2018-Feb-13 12:00N 36°50' W 076°17'0 0.0
2018-Feb-13 11:30N 36°50' W 076°17'0 0.0
2018-Feb-13 11:00N 36°50' W 076°17'0 0.0
2018-Feb-13 10:30N 36°50' W 076°17'0 0.0
2018-Feb-13 10:00N 36°50' W 076°17'0 0.0
2018-Feb-13 09:30N 36°50' W 076°17'0 0.0
2018-Feb-13 09:00N 36°50' W 076°17'0 0.0
2018-Feb-13 08:30N 36°50' W 076°17'0 0.0
2018-Feb-13 08:00N 36°50' W 076°17'0 0.0
2018-Feb-13 07:30N 36°50' W 076°17'1 2.8
2018-Feb-13 06:59N 36°51' W 076°19'4 7.7
2018-Feb-13 06:27N 36°55' W 076°20'1 1.5
2018-Feb-13 06:00N 36°56' W 076°20'2 3.8
2018-Feb-13 05:30N 36°54' W 076°20'1 0.7
2018-Feb-13 03:37N 36°53' W 076°21'0 0.0
2018-Feb-13 03:08N 36°53' W 076°21'0 0.1
2018-Feb-13 02:59N 36°53' W 076°21'0 0.0
2018-Feb-13 02:30N 36°53' W 076°21'0 0.0
2018-Feb-13 02:00N 36°53' W 076°21'0 0.0
2018-Feb-12 23:28N 36°53' W 076°21'1 2.2
2018-Feb-12 23:00N 36°54' W 076°20'2 3.3
2018-Feb-12 22:26N 36°55' W 076°20'0 0.0
2018-Feb-12 21:56N 36°55' W 076°20'0 0.0
2018-Feb-12 21:29N 36°55' W 076°20'0 0.0
2018-Feb-12 20:58N 36°55' W 076°20'0 0.0
2018-Feb-12 20:25N 36°55' W 076°20'0 0.0
2018-Feb-12 19:59N 36°55' W 076°20'0 0.0
2018-Feb-12 19:28N 36°55' W 076°20'0 0.0
2018-Feb-12 18:58N 36°55' W 076°20'0 1.0
2018-Feb-12 18:29N 36°56' W 076°20'3 6.6
2018-Feb-12 17:58N 36°59' W 076°20'4 7.6
2018-Feb-12 17:28N 37°01' W 076°15'4 6.9
2018-Feb-12 16:57N 36°60' W 076°11'3 6.4
2018-Feb-12 16:27N 37°03' W 076°09'610.9
2018-Feb-12 15:56N 37°08' W 076°10'10010.0
2018-Feb-12 05:59N 38°47' W 076°26'4 9.4
2018-Feb-12 05:30N 38°51' W 076°25'5 9.6
2018-Feb-12 05:00N 38°56' W 076°23'5 9.7
2018-Feb-12 04:29N 39°01' W 076°22'2010.1
2018-Feb-12 02:31N 39°19' W 076°12'010.7
2018-Feb-12 02:30N 39°19' W 076°12'510.6
2018-Feb-12 02:00N 39°23' W 076°07'5 9.7
2018-Feb-12 01:30N 39°25' W 076°02'5 9.3
2018-Feb-12 01:00N 39°29' W 075°57'4 8.9
2018-Feb-12 00:30N 39°31' W 075°53'4 7.4
2018-Feb-12 00:00N 39°32' W 075°48'4 7.7
2018-Feb-11 23:30N 39°33' W 075°43'4 7.6
2018-Feb-11 23:00N 39°33' W 075°38'3 5.3
2018-Feb-11 22:30N 39°33' W 075°35'2 4.8
2018-Feb-11 22:00N 39°36' W 075°34'5 9.2
2018-Feb-11 21:30N 39°40' W 075°32'611.2
2018-Feb-11 21:00N 39°45' W 075°29'510.9
2018-Feb-11 20:30N 39°49' W 075°24'510.6
2018-Feb-11 20:00N 39°51' W 075°17'510.2
2018-Feb-11 19:30N 39°53' W 075°11'3 5.6
2018-Feb-11 19:00N 39°54' W 075°08'0 0.2
2018-Feb-11 18:30N 39°54' W 075°08'0 0.0
2018-Feb-11 18:00N 39°54' W 075°08'0 0.0
2018-Feb-11 17:30N 39°54' W 075°08'0 0.0
2018-Feb-11 17:01N 39°54' W 075°08'0 0.0
2018-Feb-11 16:31N 39°54' W 075°08'0 0.0
2018-Feb-11 16:00N 39°54' W 075°08'0 0.1
2018-Feb-11 15:31N 39°54' W 075°08'0 0.1
2018-Feb-11 15:00N 39°54' W 075°08'0 0.0
2018-Feb-11 14:31N 39°54' W 075°08'0 0.0
2018-Feb-11 14:01N 39°54' W 075°08'0 0.0
2018-Feb-11 13:30N 39°54' W 075°08'0 0.0
2018-Feb-11 13:00N 39°54' W 075°08'0 0.0
2018-Feb-11 12:31N 39°54' W 075°08'0 0.0
2018-Feb-11 12:00N 39°54' W 075°08'0 0.0
2018-Feb-11 11:30N 39°54' W 075°08'0 0.0
2018-Feb-11 11:01N 39°54' W 075°08'0 0.0
2018-Feb-11 10:30N 39°54' W 075°08'0 0.0
2018-Feb-11 10:01N 39°54' W 075°08'0 0.0
2018-Feb-11 09:30N 39°54' W 075°08'0 0.0
2018-Feb-11 09:01N 39°54' W 075°08'0 0.0
2018-Feb-11 08:31N 39°54' W 075°08'0 0.0
2018-Feb-11 08:00N 39°54' W 075°08'0 0.0
2018-Feb-11 07:31N 39°54' W 075°08'0 0.0
2018-Feb-11 07:01N 39°54' W 075°08'0 0.0
2018-Feb-11 06:30N 39°54' W 075°08'0 0.0
2018-Feb-11 06:01N 39°54' W 075°08'0 0.0
2018-Feb-11 05:30N 39°54' W 075°08'0 0.0
2018-Feb-11 05:01N 39°54' W 075°08'0 0.0
2018-Feb-11 04:31N 39°54' W 075°08'0 0.0
2018-Feb-11 04:01N 39°54' W 075°08'0 0.0
2018-Feb-11 03:30N 39°54' W 075°08'0 0.0
2018-Feb-11 03:00N 39°54' W 075°08'0 0.0
2018-Feb-11 02:31N 39°54' W 075°08'0 0.0
2018-Feb-11 02:00N 39°54' W 075°08'0 0.0
2018-Feb-11 01:30N 39°54' W 075°08'0 0.0
2018-Feb-11 01:00N 39°54' W 075°08'0 0.0
2018-Feb-11 00:30N 39°54' W 075°08'0 0.1
2018-Feb-11 00:00N 39°54' W 075°08'0 0.1
2018-Feb-10 23:31N 39°54' W 075°08'0 0.0
2018-Feb-10 23:01N 39°54' W 075°08'0 0.0
2018-Feb-10 22:30N 39°54' W 075°08'0 0.0
2018-Feb-10 22:00N 39°54' W 075°08'0 0.0
2018-Feb-10 21:30N 39°54' W 075°08'0 0.0
2018-Feb-10 21:01N 39°54' W 075°08'0 0.0
2018-Feb-10 20:30N 39°54' W 075°08'0 0.2
2018-Feb-10 20:00N 39°54' W 075°08'0 0.2
2018-Feb-10 19:30N 39°54' W 075°08'0 0.0
2018-Feb-10 19:00N 39°54' W 075°08'0 0.0
2018-Feb-10 18:30N 39°54' W 075°08'0 0.1
2018-Feb-10 18:00N 39°54' W 075°08'0 0.2
2018-Feb-10 17:30N 39°54' W 075°08'2 4.8
2018-Feb-10 17:01N 39°53' W 075°11'  
Track history (hours):
 
Tides and Currents Weather Stations Pressure Air Temp Water Temp Dewpoint Dewpoint Depression Visibility Wind Speed Wind Dir Waves Ship Positions

Amy C. Mc Allister

Owner: MC ALLISTER TOWING & TRANSPORTATION INC, NEW YORK, NY. More information available from US FCC via Universal Licensing System and Coast Guard Vessel Documentation Center.

Last reported at 2018-Feb-20 17:00 UTC. Time now 2018-Feb-20 17:28 UTC.
Position N 36°55' W 076°20'.

Length 27 m; draft 4.9 m.

Type: Towing. MMSI: 366995040.

Date/timePositionNaut miles runAvg speedWind from/ knotsBaromVisibWave heightAir tempDewpointWater temp
2018-Feb-20 17:00N 36°55' W 076°20'0 0.0
2018-Feb-20 16:30N 36°55' W 076°20'0 0.0
2018-Feb-20 15:58N 36°55' W 076°20'0 0.0
2018-Feb-20 15:30N 36°55' W 076°20'0 0.0
2018-Feb-20 15:00N 36°55' W 076°20'0 0.0
2018-Feb-20 14:29N 36°55' W 076°20'0 0.0
2018-Feb-20 13:59N 36°55' W 076°20'0 0.0
2018-Feb-20 13:29N 36°55' W 076°20'0 0.0
2018-Feb-20 13:00N 36°55' W 076°20'0 0.0
2018-Feb-20 12:30N 36°55' W 076°20'0 0.0
2018-Feb-20 12:00N 36°55' W 076°20'2 4.1
2018-Feb-20 11:27N 36°52' W 076°21'1 1.4
2018-Feb-20 11:00N 36°53' W 076°20'3 5.9
2018-Feb-20 10:29N 36°56' W 076°20'1 1.7
2018-Feb-20 09:56N 36°55' W 076°20'1 1.4
2018-Feb-20 09:30N 36°55' W 076°20'0 0.0
2018-Feb-20 08:59N 36°55' W 076°20'0 0.0
2018-Feb-20 08:30N 36°55' W 076°20'0 0.0
2018-Feb-20 08:00N 36°55' W 076°20'0 0.0
2018-Feb-20 07:30N 36°55' W 076°20'0 0.0
2018-Feb-20 06:59N 36°55' W 076°20'0 0.0
2018-Feb-20 06:30N 36°55' W 076°20'0 0.0
2018-Feb-20 06:00N 36°55' W 076°20'0 0.0
2018-Feb-20 05:30N 36°55' W 076°20'0 0.0
2018-Feb-20 05:00N 36°55' W 076°20'0 0.0
2018-Feb-20 04:30N 36°55' W 076°20'0 0.0
2018-Feb-20 03:59N 36°55' W 076°20'1 2.4
2018-Feb-20 03:28N 36°56' W 076°20'0 0.4
2018-Feb-20 02:32N 36°56' W 076°20'0 0.1
2018-Feb-20 02:22N 36°56' W 076°20'0 0.0
2018-Feb-20 02:00N 36°56' W 076°20'3 6.4
2018-Feb-20 01:30N 36°53' W 076°20'3 5.8
2018-Feb-20 01:00N 36°51' W 076°18'0 0.6
2018-Feb-20 00:30N 36°50' W 076°17'0 0.0
2018-Feb-19 23:47N 36°50' W 076°17'0 0.0
2018-Feb-19 23:30N 36°50' W 076°17'0 0.0
2018-Feb-19 22:55N 36°50' W 076°17'0 0.0
2018-Feb-19 22:23N 36°50' W 076°17'0 0.0
2018-Feb-19 22:00N 36°50' W 076°17'0 0.0
2018-Feb-19 21:25N 36°50' W 076°17'0 0.0
2018-Feb-19 20:59N 36°50' W 076°17'0 0.0
2018-Feb-19 20:30N 36°50' W 076°17'0 0.0
2018-Feb-19 20:00N 36°50' W 076°17'0 0.0
2018-Feb-19 19:30N 36°50' W 076°17'0 0.0
2018-Feb-19 19:00N 36°50' W 076°17'0 0.0
2018-Feb-19 18:30N 36°50' W 076°17'0 0.0
2018-Feb-19 17:59N 36°50' W 076°17'0 0.0
2018-Feb-19 17:30N 36°50' W 076°17'0 0.0
2018-Feb-19 17:00N 36°50' W 076°17'0 0.0
2018-Feb-19 16:30N 36°50' W 076°17'0 0.0
2018-Feb-19 16:00N 36°50' W 076°17'0 0.0
2018-Feb-19 15:30N 36°50' W 076°17'0 0.0
2018-Feb-19 15:00N 36°50' W 076°17'0 0.0
2018-Feb-19 14:30N 36°50' W 076°17'0 0.0
2018-Feb-19 13:59N 36°50' W 076°17'0 0.0
2018-Feb-19 13:30N 36°50' W 076°17'0 0.0
2018-Feb-19 13:00N 36°50' W 076°17'0 0.0
2018-Feb-19 12:31N 36°50' W 076°17'0 0.0
2018-Feb-19 12:01N 36°50' W 076°17'0 0.0
2018-Feb-19 11:31N 36°50' W 076°17'0 0.0
2018-Feb-19 11:00N 36°50' W 076°17'0 0.0
2018-Feb-19 10:31N 36°50' W 076°17'0 0.0
2018-Feb-19 10:01N 36°50' W 076°17'0 0.0
2018-Feb-19 09:30N 36°50' W 076°17'0 0.0
2018-Feb-19 09:01N 36°50' W 076°17'0 0.0
2018-Feb-19 08:31N 36°50' W 076°17'0 0.0
2018-Feb-19 08:00N 36°50' W 076°17'0 0.0
2018-Feb-19 07:31N 36°50' W 076°17'0 0.0
2018-Feb-19 07:00N 36°50' W 076°17'0 0.0
2018-Feb-19 06:30N 36°50' W 076°17'0 0.0
2018-Feb-19 06:00N 36°50' W 076°17'0 0.0
2018-Feb-19 05:31N 36°50' W 076°17'0 0.0
2018-Feb-19 05:00N 36°50' W 076°17'0 0.0
2018-Feb-19 04:30N 36°50' W 076°17'0 0.0
2018-Feb-19 04:00N 36°50' W 076°17'0 0.0
2018-Feb-19 03:30N 36°50' W 076°17'0 0.0
2018-Feb-19 03:00N 36°50' W 076°17'0 0.0
2018-Feb-19 02:31N 36°50' W 076°17'1 2.1
2018-Feb-19 02:00N 36°51' W 076°18'5 9.0
2018-Feb-19 01:28N 36°56' W 076°20'0 0.5
2018-Feb-19 00:51N 36°56' W 076°20'0 1.0
2018-Feb-19 00:27N 36°56' W 076°20'3 5.4
2018-Feb-18 23:57N 36°59' W 076°20'0 0.8
2018-Feb-18 23:26N 36°59' W 076°20'3 7.4
2018-Feb-18 22:58N 37°00' W 076°16'3 6.9
2018-Feb-18 22:30N 37°00' W 076°12'6 6.3
2018-Feb-18 21:31N 37°06' W 076°10'5 9.7
2018-Feb-18 20:57N 37°12' W 076°10'96 8.9
2018-Feb-18 10:11N 38°47' W 076°27'1 8.6
2018-Feb-18 10:01N 38°48' W 076°26'4 8.6
2018-Feb-18 09:30N 38°53' W 076°25'4 7.6
2018-Feb-18 09:01N 38°56' W 076°24'4 7.7
2018-Feb-18 08:30N 38°60' W 076°23'23 9.1
2018-Feb-18 05:59N 39°21' W 076°11'5 9.9
2018-Feb-18 05:30N 39°23' W 076°05'5 9.2
2018-Feb-18 05:00N 39°26' W 076°01'5 8.7
2018-Feb-18 04:29N 39°29' W 075°57'4 7.8
2018-Feb-18 04:00N 39°31' W 075°53'4 7.1
2018-Feb-18 03:30N 39°32' W 075°48'4 7.1
2018-Feb-18 03:00N 39°33' W 075°44'3 6.8
2018-Feb-18 02:31N 39°33' W 075°39'3 7.0
2018-Feb-18 02:01N 39°34' W 075°35'2 4.8
2018-Feb-18 01:31N 39°36' W 075°34'4 7.4
2018-Feb-18 01:00N 39°39' W 075°33'5 9.0
2018-Feb-18 00:31N 39°44' W 075°30'4 9.0
2018-Feb-18 00:00N 39°47' W 075°27'5 9.4
2018-Feb-17 23:30N 39°50' W 075°22'510.0
2018-Feb-17 23:01N 39°51' W 075°16'5 9.5
2018-Feb-17 22:31N 39°53' W 075°10'2 4.0
2018-Feb-17 22:00N 39°54' W 075°08'0 0.3
2018-Feb-17 21:31N 39°54' W 075°08'0 0.0
2018-Feb-17 21:00N 39°54' W 075°08'0 0.0
2018-Feb-17 20:31N 39°54' W 075°08'0 0.0
2018-Feb-17 20:00N 39°54' W 075°08'0 0.0
2018-Feb-17 19:30N 39°54' W 075°08'0 0.0
2018-Feb-17 19:01N 39°54' W 075°08'0 0.0
2018-Feb-17 18:30N 39°54' W 075°08'0 0.0
2018-Feb-17 18:01N 39°54' W 075°08'0 0.0
2018-Feb-17 17:31N 39°54' W 075°08'0 0.4
2018-Feb-17 17:01N 39°54' W 075°08'2 4.0
2018-Feb-17 16:31N 39°53' W 075°10'4 8.1
2018-Feb-17 16:00N 39°51' W 075°15'4 8.3
2018-Feb-17 15:31N 39°51' W 075°20'5 9.3
2018-Feb-17 15:01N 39°48' W 075°25'4 8.9
2018-Feb-17 14:30N 39°45' W 075°29'4 8.6
2018-Feb-17 14:00N 39°41' W 075°31'4 8.2
2018-Feb-17 13:30N 39°38' W 075°34'4 7.9
2018-Feb-17 13:01N 39°34' W 075°33'4 8.0
2018-Feb-17 12:30N 39°33' W 075°38'4 8.4
2018-Feb-17 12:00N 39°33' W 075°43'36 7.7
2018-Feb-17 07:24N 39°10' W 076°19'3 7.0
2018-Feb-17 07:00N 39°10' W 076°22'4 8.5
2018-Feb-17 06:30N 39°11' W 076°27'4 8.6
2018-Feb-17 06:00N 39°13' W 076°32'2 4.4
2018-Feb-17 05:30N 39°15' W 076°33'0 0.1
2018-Feb-17 05:01N 39°15' W 076°33'0 0.0
2018-Feb-17 04:31N 39°15' W 076°33'0 0.0
2018-Feb-17 04:00N 39°15' W 076°33'0 0.0
2018-Feb-17 03:31N 39°15' W 076°33'0 0.0
2018-Feb-17 03:00N 39°15' W 076°33'0 0.0
2018-Feb-17 02:30N 39°15' W 076°33'0 0.0
2018-Feb-17 02:00N 39°15' W 076°33'0 0.0
2018-Feb-17 01:30N 39°15' W 076°33'0 0.0
2018-Feb-17 01:01N 39°15' W 076°33'0 0.2
2018-Feb-17 00:31N 39°15' W 076°33'0 0.2
2018-Feb-17 00:00N 39°15' W 076°33'0 0.0
2018-Feb-16 23:30N 39°15' W 076°33'0 0.0
2018-Feb-16 23:00N 39°15' W 076°33'0 0.0
2018-Feb-16 22:31N 39°15' W 076°33'0 0.0
2018-Feb-16 22:01N 39°15' W 076°33'0 0.0
2018-Feb-16 21:31N 39°15' W 076°33'0 0.0
2018-Feb-16 21:01N 39°15' W 076°33'0 0.0
2018-Feb-16 20:31N 39°15' W 076°33'0 0.0
2018-Feb-16 20:01N 39°15' W 076°33'0 0.0
2018-Feb-16 19:31N 39°15' W 076°33'0 0.0
2018-Feb-16 19:00N 39°15' W 076°33'0 0.0
2018-Feb-16 18:31N 39°15' W 076°33'0 0.0
2018-Feb-16 18:01N 39°15' W 076°33'0 0.0
2018-Feb-16 17:31N 39°15' W 076°33'0 0.0
2018-Feb-16 17:01N 39°15' W 076°33'0 0.0
2018-Feb-16 16:31N 39°15' W 076°33'0 0.0
2018-Feb-16 16:00N 39°15' W 076°33'0 0.0
2018-Feb-16 15:31N 39°15' W 076°33'0 0.0
2018-Feb-16 15:01N 39°15' W 076°33'0 0.0
2018-Feb-16 14:30N 39°15' W 076°33'0 0.0
2018-Feb-16 14:01N 39°15' W 076°33'0 0.0
2018-Feb-16 13:31N 39°15' W 076°33'0 0.0
2018-Feb-16 13:01N 39°15' W 076°33'0 0.0
2018-Feb-16 12:31N 39°15' W 076°33'0 0.0
2018-Feb-16 12:00N 39°15' W 076°33'0 0.0
2018-Feb-16 11:29N 39°15' W 076°33'0 0.0
2018-Feb-16 11:01N 39°15' W 076°33'0 0.0
2018-Feb-16 10:30N 39°15' W 076°33'0 0.0
2018-Feb-16 10:01N 39°15' W 076°33'0 0.0
2018-Feb-16 09:31N 39°15' W 076°33'0 0.0
2018-Feb-16 09:01N 39°15' W 076°33'0 0.0
2018-Feb-16 08:30N 39°15' W 076°33'0 0.0
2018-Feb-16 08:01N 39°15' W 076°33'0 0.0
2018-Feb-16 07:30N 39°15' W 076°33'0 0.0
2018-Feb-16 07:01N 39°15' W 076°33'0 0.0
2018-Feb-16 06:30N 39°15' W 076°33'0 0.0
2018-Feb-16 06:01N 39°15' W 076°33'0 0.0
2018-Feb-16 05:30N 39°15' W 076°33'0 0.0
2018-Feb-16 05:01N 39°15' W 076°33'0 0.0
2018-Feb-16 04:31N 39°15' W 076°33'0 0.0
2018-Feb-16 04:00N 39°15' W 076°33'0 0.2
2018-Feb-16 03:31N 39°15' W 076°33'0 0.2
2018-Feb-16 03:00N 39°15' W 076°33'0 0.0
2018-Feb-16 02:30N 39°15' W 076°33'0 0.0
2018-Feb-16 02:01N 39°15' W 076°33'0 0.0
2018-Feb-16 01:31N 39°15' W 076°33'0 0.0
2018-Feb-16 01:01N 39°15' W 076°33'0 0.0
2018-Feb-16 00:31N 39°15' W 076°33'0 0.0
2018-Feb-16 00:00N 39°15' W 076°33'1 2.3
2018-Feb-15 23:30N 39°14' W 076°33'4 8.0
2018-Feb-15 23:00N 39°12' W 076°29'13 6.6
2018-Feb-15 21:04N 38°60' W 076°23'8 8.3
2018-Feb-15 20:07N 38°52' W 076°25'1 8.1
2018-Feb-15 20:01N 38°51' W 076°25'100 8.3
2018-Feb-15 07:54N 37°11' W 076°10'4 7.7
2018-Feb-15 07:25N 37°08' W 076°10'3 7.7
2018-Feb-15 06:59N 37°04' W 076°09'4 7.4
2018-Feb-15 06:22N 36°60' W 076°10'410.1
2018-Feb-15 05:56N 37°00' W 076°15'5 9.5
2018-Feb-15 05:26N 36°58' W 076°20'4 9.5
2018-Feb-15 04:59N 36°53' W 076°20'1 1.6
2018-Feb-15 04:25N 36°53' W 076°21'0 0.0
2018-Feb-15 04:00N 36°53' W 076°21'0 0.0
2018-Feb-15 03:28N 36°53' W 076°21'0 0.0
2018-Feb-15 02:55N 36°53' W 076°21'0 0.0
2018-Feb-15 02:27N 36°53' W 076°21'0 0.0
2018-Feb-15 01:58N 36°53' W 076°21'0 0.0
2018-Feb-14 22:55N 36°53' W 076°21'0 0.0
2018-Feb-14 22:22N 36°53' W 076°21'0 0.0
2018-Feb-14 22:00N 36°53' W 076°21'0 0.0
2018-Feb-14 21:26N 36°53' W 076°21'0 0.0
2018-Feb-14 20:17N 36°53' W 076°21'0 0.0
2018-Feb-14 19:58N 36°53' W 076°21'0 0.0
2018-Feb-14 17:50N 36°53' W 076°21'0 0.0
2018-Feb-14 17:22N 36°53' W 076°21'0 0.0
2018-Feb-14 16:59N 36°53' W 076°21'0 0.5
2018-Feb-14 16:26N 36°53' W 076°21'3 6.8
2018-Feb-14 15:59N 36°56' W 076°20'0 0.8
2018-Feb-14 15:30N 36°55' W 076°20'0 0.0
2018-Feb-14 15:00N 36°55' W 076°20'0 0.0
2018-Feb-14 14:27N 36°55' W 076°20'0 0.0
2018-Feb-14 14:00N 36°55' W 076°20'0 0.0
2018-Feb-14 13:30N 36°55' W 076°20'0 0.1
2018-Feb-14 13:00N 36°55' W 076°20'0 0.2
2018-Feb-14 11:09N 36°56' W 076°20'0 0.0
2018-Feb-14 10:39N 36°56' W 076°20'0 0.0
2018-Feb-14 10:28N 36°56' W 076°20'0 0.0
2018-Feb-14 09:58N 36°56' W 076°20'0 0.0
2018-Feb-14 09:25N 36°56' W 076°20'0 0.0
2018-Feb-14 08:59N 36°56' W 076°20'0 0.0
2018-Feb-14 04:09N 36°56' W 076°20'0 0.0
2018-Feb-14 01:33N 36°56' W 076°20'0 3.9
2018-Feb-14 01:29N 36°56' W 076°20'4 7.3
2018-Feb-14 01:00N 36°52' W 076°20'3 5.2
2018-Feb-14 00:30N 36°50' W 076°17'0 0.0
2018-Feb-14 00:00N 36°50' W 076°17'0 0.0
2018-Feb-13 23:29N 36°50' W 076°17'0 0.0
2018-Feb-13 22:52N 36°50' W 076°17'0 0.0
2018-Feb-13 22:28N 36°50' W 076°17'0 0.0
2018-Feb-13 21:59N 36°50' W 076°17'0 0.0
2018-Feb-13 21:30N 36°50' W 076°17'0 0.0
2018-Feb-13 20:55N 36°50' W 076°17'0 0.0
2018-Feb-13 20:30N 36°50' W 076°17'0 0.0
2018-Feb-13 19:58N 36°50' W 076°17'0 0.0
2018-Feb-13 19:22N 36°50' W 076°17'0 0.0
2018-Feb-13 18:56N 36°50' W 076°17'0 0.0
2018-Feb-13 18:06N 36°50' W 076°17'0 0.0
2018-Feb-13 17:57N 36°50' W 076°17'0 0.0
2018-Feb-13 17:27N 36°50' W 076°17'0 0.0
2018-Feb-13 17:00N 36°50' W 076°17'0 0.0
2018-Feb-13 16:30N 36°50' W 076°17'0 0.0
2018-Feb-13 16:00N 36°50' W 076°17'2 4.9
2018-Feb-13 15:31N 36°48' W 076°18'0 0.1
2018-Feb-13 15:00N 36°48' W 076°17'0 0.0
2018-Feb-13 14:30N 36°48' W 076°18'0 0.0
2018-Feb-13 14:00N 36°48' W 076°18'0 0.0
2018-Feb-13 13:30N 36°48' W 076°18'0 0.0
2018-Feb-13 13:00N 36°48' W 076°18'2 3.9
2018-Feb-13 12:30N 36°50' W 076°18'1 1.1
2018-Feb-13 12:00N 36°50' W 076°17'0 0.0
2018-Feb-13 11:30N 36°50' W 076°17'0 0.0
2018-Feb-13 11:00N 36°50' W 076°17'0 0.0
2018-Feb-13 10:30N 36°50' W 076°17'0 0.0
2018-Feb-13 10:00N 36°50' W 076°17'0 0.0
2018-Feb-13 09:30N 36°50' W 076°17'0 0.0
2018-Feb-13 09:00N 36°50' W 076°17'0 0.0
2018-Feb-13 08:30N 36°50' W 076°17'0 0.0
2018-Feb-13 08:00N 36°50' W 076°17'0 0.0
2018-Feb-13 07:30N 36°50' W 076°17'1 2.8
2018-Feb-13 06:59N 36°51' W 076°19'4 7.7
2018-Feb-13 06:27N 36°55' W 076°20'1 1.5
2018-Feb-13 06:00N 36°56' W 076°20'2 3.8
2018-Feb-13 05:30N 36°54' W 076°20'1 0.7
2018-Feb-13 03:37N 36°53' W 076°21'0 0.0
2018-Feb-13 03:08N 36°53' W 076°21'0 0.1
2018-Feb-13 02:59N 36°53' W 076°21'0 0.0
2018-Feb-13 02:30N 36°53' W 076°21'0 0.0
2018-Feb-13 02:00N 36°53' W 076°21'0 0.0
2018-Feb-12 23:28N 36°53' W 076°21'1 2.2
2018-Feb-12 23:00N 36°54' W 076°20'2 3.3
2018-Feb-12 22:26N 36°55' W 076°20'0 0.0
2018-Feb-12 21:56N 36°55' W 076°20'0 0.0
2018-Feb-12 21:29N 36°55' W 076°20'0 0.0
2018-Feb-12 20:58N 36°55' W 076°20'0 0.0
2018-Feb-12 20:25N 36°55' W 076°20'0 0.0
2018-Feb-12 19:59N 36°55' W 076°20'0 0.0
2018-Feb-12 19:28N 36°55' W 076°20'0 0.0
2018-Feb-12 18:58N 36°55' W 076°20'0 1.0
2018-Feb-12 18:29N 36°56' W 076°20'3 6.6
2018-Feb-12 17:58N 36°59' W 076°20'4 7.6
2018-Feb-12 17:28N 37°01' W 076°15'4 6.9
2018-Feb-12 16:57N 36°60' W 076°11'3 6.4
2018-Feb-12 16:27N 37°03' W 076°09'610.9
2018-Feb-12 15:56N 37°08' W 076°10'10010.0
2018-Feb-12 05:59N 38°47' W 076°26'4 9.4
2018-Feb-12 05:30N 38°51' W 076°25'5 9.6
2018-Feb-12 05:00N 38°56' W 076°23'5 9.7
2018-Feb-12 04:29N 39°01' W 076°22'2010.1
2018-Feb-12 02:31N 39°19' W 076°12'010.7
2018-Feb-12 02:30N 39°19' W 076°12'510.6
2018-Feb-12 02:00N 39°23' W 076°07'5 9.7
2018-Feb-12 01:30N 39°25' W 076°02'5 9.3
2018-Feb-12 01:00N 39°29' W 075°57'4 8.9
2018-Feb-12 00:30N 39°31' W 075°53'4 7.4
2018-Feb-12 00:00N 39°32' W 075°48'4 7.7
2018-Feb-11 23:30N 39°33' W 075°43'4 7.6
2018-Feb-11 23:00N 39°33' W 075°38'3 5.3
2018-Feb-11 22:30N 39°33' W 075°35'2 4.8
2018-Feb-11 22:00N 39°36' W 075°34'5 9.2
2018-Feb-11 21:30N 39°40' W 075°32'611.2
2018-Feb-11 21:00N 39°45' W 075°29'510.9
2018-Feb-11 20:30N 39°49' W 075°24'510.6
2018-Feb-11 20:00N 39°51' W 075°17'510.2
2018-Feb-11 19:30N 39°53' W 075°11'3 5.6
2018-Feb-11 19:00N 39°54' W 075°08'0 0.2
2018-Feb-11 18:30N 39°54' W 075°08'0 0.0
2018-Feb-11 18:00N 39°54' W 075°08'0 0.0
2018-Feb-11 17:30N 39°54' W 075°08'0 0.0
2018-Feb-11 17:01N 39°54' W 075°08'0 0.0
2018-Feb-11 16:31N 39°54' W 075°08'0 0.0
2018-Feb-11 16:00N 39°54' W 075°08'0 0.1
2018-Feb-11 15:31N 39°54' W 075°08'0 0.1
2018-Feb-11 15:00N 39°54' W 075°08'0 0.0
2018-Feb-11 14:31N 39°54' W 075°08'0 0.0
2018-Feb-11 14:01N 39°54' W 075°08'0 0.0
2018-Feb-11 13:30N 39°54' W 075°08'0 0.0
2018-Feb-11 13:00N 39°54' W 075°08'0 0.0
2018-Feb-11 12:31N 39°54' W 075°08'0 0.0
2018-Feb-11 12:00N 39°54' W 075°08'0 0.0
2018-Feb-11 11:30N 39°54' W 075°08'0 0.0
2018-Feb-11 11:01N 39°54' W 075°08'0 0.0
2018-Feb-11 10:30N 39°54' W 075°08'0 0.0
2018-Feb-11 10:01N 39°54' W 075°08'0 0.0
2018-Feb-11 09:30N 39°54' W 075°08'0 0.0
2018-Feb-11 09:01N 39°54' W 075°08'0 0.0
2018-Feb-11 08:31N 39°54' W 075°08'0 0.0
2018-Feb-11 08:00N 39°54' W 075°08'0 0.0
2018-Feb-11 07:31N 39°54' W 075°08'0 0.0
2018-Feb-11 07:01N 39°54' W 075°08'0 0.0
2018-Feb-11 06:30N 39°54' W 075°08'0 0.0
2018-Feb-11 06:01N 39°54' W 075°08'0 0.0
2018-Feb-11 05:30N 39°54' W 075°08'0 0.0
2018-Feb-11 05:01N 39°54' W 075°08'0 0.0
2018-Feb-11 04:31N 39°54' W 075°08'0 0.0
2018-Feb-11 04:01N 39°54' W 075°08'0 0.0
2018-Feb-11 03:30N 39°54' W 075°08'0 0.0
2018-Feb-11 03:00N 39°54' W 075°08'0 0.0
2018-Feb-11 02:31N 39°54' W 075°08'0 0.0
2018-Feb-11 02:00N 39°54' W 075°08'0 0.0
2018-Feb-11 01:30N 39°54' W 075°08'0 0.0
2018-Feb-11 01:00N 39°54' W 075°08'0 0.0
2018-Feb-11 00:30N 39°54' W 075°08'0 0.1
2018-Feb-11 00:00N 39°54' W 075°08'0 0.1
2018-Feb-10 23:31N 39°54' W 075°08'0 0.0
2018-Feb-10 23:01N 39°54' W 075°08'0 0.0
2018-Feb-10 22:30N 39°54' W 075°08'0 0.0
2018-Feb-10 22:00N 39°54' W 075°08'0 0.0
2018-Feb-10 21:30N 39°54' W 075°08'0 0.0
2018-Feb-10 21:01N 39°54' W 075°08'0 0.0
2018-Feb-10 20:30N 39°54' W 075°08'0 0.2
2018-Feb-10 20:00N 39°54' W 075°08'0 0.2
2018-Feb-10 19:30N 39°54' W 075°08'0 0.0
2018-Feb-10 19:00N 39°54' W 075°08'0 0.0
2018-Feb-10 18:30N 39°54' W 075°08'0 0.1
2018-Feb-10 18:00N 39°54' W 075°08'0 0.2
2018-Feb-10 17:30N 39°54' W 075°08'2 4.8
2018-Feb-10 17:01N 39°53' W 075°11'  

Dump ship's entire track history